Tiempo atmosférico en la estación meteorológica de Lagunas De Somoza, León (1020 m.)



Fecha
DESCASC
Temp. máxima en grados centígrados (hora)
DESCASC
Temp. mínima en grados centígrados (hora)
DESCASC
Temp. media en grados centígrados
DESCASC
Racha de viento máxima en m/sg (hora)
DESCASC
Velocidad máxima media en intervalos de 10 minutos(hora)
DESCASC
Precipitaciones diarias en mm
DESCASC
Precipitaciones de 00:00 a 06:00 en mm
DESCASC
Precipitaciones de 06:00 a 12:00 en mm
DESCASC
Precipitaciones de 12:00 a 18:00 en mm
DESCASC
Precipitaciones de 18:00 a 24:00 en mm
DESCASC
16-01-2020 9.9 (09:00) 6.4 (22:30) 8.1 11.39 (12:40) 6.39 (05:00) 2.3 0.3 1.1 0.1 0.8
15-01-2020 12.2 (14:30) 5.1 (19:50) 8.6 9.72 (01:10) 5.83 (01:10) 3.7 2.1 1.4 0 0.2
14-01-2020 9 (15:00) -0.5 (00:00) 4.3 9.72 (18:20) 6.67 (18:00) 0.6 0 0.1 0 0.5
13-01-2020 4.9 (13:30) -2.9 (08:20) 1 4.17 (17:00) 2.78 (14:00) 0 0 0 0 0
12-01-2020 9 (15:10) -3.5 (-00:0) 2.8 3.33 (23:50) 2.22 (23:50) 0.2 0 0.1 0.1 0
11-01-2020 10.9 (16:50) -2.8 (-00:0) 4 3.89 (14:40) 2.5 (17:10) 0.1 0 0.1 0 0
10-01-2020 10 (15:40) -0.2 (00:00) 4.9 11.11 (01:00) 5.56 (04:20) 0 0 0 0 0
09-01-2020 14.9 (13:50) 2.9 (00:00) 8.9 15.56 (15:30) 9.72 (16:20) 0 0 0 0 0
08-01-2020 15.6 (15:10) 0.6 (00:00) 8.1 3.33 (16:10) 2.22 (19:00) 0 0 0 0 0
07-01-2020 13.6 (15:40) -3.3 (-00:0) 5.2 2.78 (07:30) 1.94 (07:30) 0 0 0 0 0
06-01-2020 8.4 (17:00) -3.4 (-00:0) 2.5 3.06 (14:50) 1.94 (02:30) 0 0 0 0 0
05-01-2020 15.1 (16:40) -2 (-00:0) 6.6 3.33 (19:20) 2.78 (20:10) 0.1 0 0.1 0 0
04-01-2020 3.8 (11:50) -2.1 (-00:0) 0.9 3.89 (01:00) 2.22 (20:50) 0.2 0 0.1 0.1 0
03-01-2020 7.9 (15:50) -0.4 (00:00) 3.8 3.61 (23:10) 2.78 (23:10) 0.1 0 0.1 0 0
02-01-2020 10.7 (15:10) -1.9 (-00:0) 4.4 2.5 (15:20) 1.67 (16:10) 0.1 0 0.1 0 0
01-01-2020 14.4 (15:10) -1.1 (-00:0) 6.6 2.78 (07:10) 1.94 (21:30) 0 0 0 0 0
31-12-2019 17.2 (15:10) 0.8 (00:00) 9 3.06 (14:00) 1.94 (00:30) 0 0 0 0 0
30-12-2019 19.8 (16:00) 0.5 (00:00) 10.1 3.89 (23:30) 3.06 (23:30) 0 0 0 0 0
29-12-2019 18.6 (16:10) 1.2 (00:00) 9.9 3.61 (01:00) 2.78 (01:00) 0 0 0 0 0
28-12-2019 18 (15:30) -0.1 (00:00) 8.9 3.33 (01:00) 2.78 (01:00) 0 0 0 0 0
27-12-2019 13.4 (15:20) -2.2 (-00:0) 5.6 3.33 (20:20) 2.78 (20:20) 0.1 0 0.1 0 0
26-12-2019 10.2 (13:40) 2.2 (00:00) 6.2 6.11 (14:40) 3.06 (14:40) 0 0 0 0 0
25-12-2019 8.5 (17:20) 6.2 (00:00) 7.3 3.61 (19:50) 1.94 (20:50) 0.3 0.1 0.2 0 0
24-12-2019 10 (14:10) 3.4 (00:00) 6.7 8.89 (09:10) 3.06 (09:00) 0.3 0 0 0.1 0.2
23-12-2019 9.7 (15:20) 1.2 (00:00) 5.4 11.67 (00:30) 8.33 (00:30) 0 0 0 0 0
22-12-2019 12.7 (11:30) 5.8 (00:00) 9.3 23.89 (14:50) 15.83 (14:50) 1.1 0.5 0.2 0.4 0
21-12-2019 14.4 (10:40) 5.6 (00:00) 10 26.94 (20:20) 16.67 (20:20) 3 0.2 0.2 0.7 1.9
20-12-2019 9.2 (20:30) 4.5 (00:00) 6.8 18.61 (21:30) 11.67 (21:30) 6 0.6 0.3 4.4 0.7
19-12-2019 11.1 (21:40) 6.9 (13:40) 9 20.56 (06:00) 11.11 (06:00) 41.5 11.7 1.9 13.5 14.4

Gráficas

Temp. máximas Temp. mínimas Temp. medias Precipitaciones Rachas de viento máximas Velocidades máximas media en intervalos de 10 minutos

Datos horarios

Fecha y hora oficial Temperatura (ºC) Velocidad del viento (km/h) Dirección del viento Racha (km/h) Dirección de racha Precipitación (mm) Presión (hPa) Tendencia (hPa) Humedad (%)
2020-01-17 23:00:00 3.2 8 Nordeste 14 Nordeste 0 912.5 -1.2 81
2020-01-17 22:00:00 3.3 0 Calma 5 Nordeste 0 913.1 -0.1 80
2020-01-17 21:00:00 3.3 0 Calma 9 Oeste 0 913.2 0.4 76
2020-01-17 20:00:00 3.2 2 Sur 9 Nordeste 0 913.7 1.1 74
2020-01-17 19:00:00 4.1 6 Norte 14 Norte 0 913.2 1 68
2020-01-17 18:00:00 5 6 Noroeste 14 Noroeste 0 912.8 1.1 64
2020-01-17 17:00:00 6.3 9 Noroeste 19 Noroeste 0 912.6 0.5 51
2020-01-17 16:00:00 7.3 15 Noroeste 29 Noroeste 0 912.2 0.5 48
2020-01-17 15:00:00 6.6 18 Noroeste 27 Noroeste 0 911.7 -0.1 55
2020-01-17 14:00:00 6.5 18 Oeste 38 Noroeste 0 912.1 1.3 56
2020-01-17 13:00:00 6.3 22 Noroeste 35 Oeste 0 911.7 1.7 66
2020-01-17 12:00:00 5.9 21 Noroeste 48 Noroeste 0 911.8 2.3 69
2020-01-17 11:00:00 5.6 29 Noroeste 42 Noroeste 0 910.8 2.1 63
2020-01-17 10:00:00 4.8 19 Noroeste 31 Noroeste 0 910 2.2 72
2020-01-17 09:00:00 3 5 Noroeste 33 Oeste 0 909.5 2.6 85
2020-01-17 08:00:00 4.6 22 Oeste 32 Oeste 0 908.7 2.2 77
2020-01-17 07:00:00 4.5 15 Oeste 27 Oeste 0 907.8 1.6 71
2020-01-17 06:00:00 4.2 12 Oeste 22 Oeste 0 906.9 0.9 85
2020-01-17 05:00:00 4.8 7 Oeste 18 Noroeste 0.2 906.5 0.8 88
2020-01-17 04:00:00 5.1 6 Sur 13 Sur 0 906.2 0.6 92
2020-01-17 03:00:00 5.9 0 Calma 12 Oeste 0.9 906 0.9 89
2020-01-17 02:00:00 6.3 3 Nordeste 11 Norte 0.1 905.7 1.2 88
2020-01-17 01:00:00 6.3 3 Sudeste 11 Oeste 0 905.6 1.3 87
2020-01-17 00:00:00 6.9 4 Nordeste 10 Noroeste 0 905.1 1.3 75
2020-01-16 23:00:00 6.8 5 Sur 15 Sudoeste 0 904.5 0.8 73
2020-01-16 22:00:00 6.9 0 Calma 18 Sudoeste 0 904.3 0.9 85
2020-01-16 21:00:00 7.6 10 Sudoeste 24 Sur 0.2 903.8 1.7 87
2020-01-16 20:00:00 7 6 Este 23 Sur 0.3 903.7 1.1 89
2020-01-16 19:00:00 7.2 12 Sudeste 26 Sudoeste 0.3 903.4 0.2 84
2020-01-16 18:00:00 8.1 9 Sudeste 36 Sudeste 0.1 902.1 -1.7 79
2020-01-16 17:00:00 8.5 16 Sudeste 30 Sudeste 0 902.6 -2.1 77
2020-01-16 16:00:00 9.3 9 Sur 35 Sur 0 903.2 -2.5 70
2020-01-16 15:00:00 9.4 5 Sur 34 Sudoeste 0 903.8 -2.3 68
2020-01-16 14:00:00 9.8 14 Sur 30 Sudoeste 0 904.7 -0.9 66
2020-01-16 13:00:00 9.5 12 Sur 41 Sudoeste 0 905.7 0.6 73
2020-01-16 12:00:00 9.3 17 Sudoeste 35 Sudoeste 0.1 906.1 0.9 82
2020-01-16 11:00:00 9 19 Sur 38 Sur 0.6 905.6 0.3 94
2020-01-16 10:00:00 8.9 18 Sur 28 Sur 0 905.1 0.2 92
2020-01-16 09:00:00 9.9 15 Sudoeste 33 Sudoeste 0 905.2 0 75
2020-01-16 08:00:00 9.4 17 Sur 34 Sur 0.1 905.3 0.6 85
2020-01-16 07:00:00 9.1 15 Sur 36 Sur 0.3 904.9 -0.6 92
2020-01-16 06:00:00 9.2 14 Sur 35 Sur 0.1 905.2 -0.5 93
2020-01-16 05:00:00 9.1 23 Sur 38 Sur 0 904.7 -1.3 94
2020-01-16 04:00:00 9.2 15 Sur 25 Sur 0 905.5 -0.7 91
2020-01-16 03:00:00 9.3 14 Sudoeste 24 Sudoeste 0.1 905.7 -0.4 82
2020-01-16 02:00:00 9.4 16 Sudoeste 33 Sur 0.1 906 -0.2 89
2020-01-16 01:00:00 9.2 18 Sur 28 Sur 0 906.2 -0.5 97
2020-01-16 00:00:00 8.9 13 Sur 23 Sur 0 906.1 -0.4 97
2020-01-15 23:00:00 8 10 Sudeste 16 Sudeste 0.1 906.2 0 96
2020-01-15 22:00:00 8 8 Este 20 Sudeste 0.1 906.7 0.6 94
2020-01-15 21:00:00 6.7 9 Sudeste 19 Sudeste 0 906.5 1.3 89
2020-01-15 20:00:00 5.5 9 Sur 13 Sur 0 906.2 1.8 74
2020-01-15 19:00:00 6.9 6 Sur 20 Sudoeste 0 906.1 2.4 67
2020-01-15 18:00:00 9 15 Sudoeste 27 Sur 0 905.2 1.9 57
2020-01-15 17:00:00 10.5 16 Sudoeste 30 Sudoeste 0 904.4 1.2 61
2020-01-15 16:00:00 11.3 17 Sur 27 Sudoeste 0 903.7 0.4 63
2020-01-15 15:00:00 10.8 17 Sur 26 Sur 0 903.3 0.1 65
2020-01-15 14:00:00 10.3 8 Sur 17 Sur 0 903.2 1 77
2020-01-15 13:00:00 8.2 9 Nordeste 27 Nordeste 0 903.3 2.5 88
2020-01-15 12:00:00 8.5 6 Nordeste 19 Nordeste 0 903.2 2.9 83
2020-01-15 11:00:00 8.7 10 Sudoeste 29 Noroeste 0 902.2 2.8 71
2020-01-15 10:00:00 7 9 Noroeste 29 Oeste 0.9 900.8 2.3 80
2020-01-15 09:00:00 7.5 6 Sudeste 28 Nordeste 0.3 900.3 2 93
2020-01-15 08:00:00 7.7 4 Sudeste 17 Este 0.1 899.4 1 90
2020-01-15 07:00:00 7.6 14 Sudeste 24 Nordeste 0.1 898.5 -0.4 90
2020-01-15 06:00:00 7.3 7 Sudeste 18 Noroeste 0.3 898.3 -0.4 89
2020-01-15 05:00:00 7.5 4 Norte 24 Este 0.4 898.4 -0.8 89
2020-01-15 04:00:00 6.8 10 Este 19 Este 0.6 898.9 -0.4 92
2020-01-15 03:00:00 6.9 15 Sudeste 32 Sudeste 0.4 898.7 -1.2 90
2020-01-15 02:00:00 6.6 19 Sudeste 35 Sudeste 0.2 899.2 -0.9 91
2020-01-15 01:00:00 5.9 19 Sur 32 Sur 0.2 899.3 -1 96
2020-01-15 00:00:00 5.7 14 Sur 24 Sur 0.1 899.9 -0.4 96
2020-01-14 23:00:00 5.7 13 Sur 28 Sur 0.4 900.1 -0.3 96
2020-01-14 22:00:00 6 20 Sur 33 Sur 0 900.3 -0.1 93
2020-01-14 21:00:00 5.7 23 Sur 32 Sur 0 900.3 0.4 92
2020-01-14 20:00:00 6.4 10 Sur 28 Sudoeste 0 900.4 0.4 83
2020-01-14 19:00:00 6.3 15 Sur 35 Sur 0 900.4 0.4 84
2020-01-14 18:00:00 6.4 24 Sur 34 Sudoeste 0 899.9 -0.4 82
2020-01-14 17:00:00 7.2 4 Sudeste 15 Este 0 900 -0.9 82
2020-01-14 16:00:00 7 3 Este 20 Este 0 900 -1.9 83
2020-01-14 15:00:00 8.5 9 Oeste 32 Sudoeste 0 900.3 -2 65
2020-01-14 14:00:00 4.9 9 Este 17 Nordeste 0 900.9 -1.3 99
2020-01-14 13:00:00 4.2 8 Nordeste 16 Nordeste 0 901.9 -0.1 99
2020-01-14 12:00:00 3 9 Nordeste 15 Nordeste 0 902.3 0.6 99
2020-01-14 11:00:00 2.3 7 Norte 15 Nordeste 0.1 902.2 0.5 99
2020-01-14 10:00:00 1.2 0 Calma -- -- 0 902 0.2 99
2020-01-14 09:00:00 0.7 0 Calma -- -- 0 901.7 -0.4 99
2020-01-14 08:00:00 0.5 0 Calma -- -- 0 901.7 -0.5 99
2020-01-14 07:00:00 0.4 0 Calma -- -- 0 901.8 -0.8 99
2020-01-14 06:00:00 0.2 0 Calma 10 Norte 0 902.1 -0.5 99
2020-01-14 05:00:00 0 6 Norte 15 Norte 0 902.2 -0.7 99
2020-01-14 04:00:00 -0.1 6 Nordeste 14 Nordeste 0 902.6 -1 99
2020-01-14 03:00:00 -0.3 5 Norte 12 Nordeste 0 902.6 -1.6 99
2020-01-14 02:00:00 -0.1 0 Calma 6 Nordeste 0 902.9 -1.1 99
2020-01-14 01:00:00 -0.2 0 Calma 5 Noroeste 0 903.6 -0.7 99
2020-01-14 00:00:00 -0.5 4 Norte 12 Nordeste 0 904.2 -0.1 99
2020-01-13 23:00:00 -0.7 3 Norte 10 Norte 0 904 -0.3 99
2020-01-13 22:00:00 -0.8 6 Norte 12 Nordeste 0 904.3 0.1 99
2020-01-13 21:00:00 -1 5 Nordeste 9 Nordeste 0 904.3 0.5 99
2020-01-13 20:00:00 -1 4 Nordeste 9 Nordeste 0 904.3 0.2 99
2020-01-13 19:00:00 -0.9 5 Nordeste 10 Norte 0 904.2 0.3 99
2020-01-13 18:00:00 -0.7 6 Nordeste 10 Nordeste 0 903.8 -0.2 96
2020-01-13 17:00:00 -0.4 9 Nordeste 15 Nordeste 0 904.1 -0.5 93
2020-01-13 16:00:00 0.5 4 Nordeste 12 Este 0 903.9 -1.6 90
2020-01-13 15:00:00 1.6 6 Sudeste 15 Nordeste 0 904 -2.5 86
2020-01-13 14:00:00 2.8 10 Sudeste 13 Sur 0 904.6 -2.5 73
2020-01-13 13:00:00 3.6 3 Sudeste 10 Sur 0 905.5 -1.1 81
2020-01-13 12:00:00 0.3 7 Sur 12 Sur 0 906.5 -0.1 88
2020-01-13 11:00:00 -0.5 6 Nordeste 12 Nordeste 0 907.1 0.4 90
2020-01-13 10:00:00 -1.9 0 Calma 5 Nordeste 0 906.6 -0.3 94
2020-01-13 09:00:00 -2.6 0 Calma 5 Noroeste 0 906.6 -0.5 93
2020-01-13 08:00:00 -2.4 0 Calma 6 Sudeste 0 906.7 -1 91
2020-01-13 07:00:00 -1 2 Nordeste 9 Nordeste 0 906.9 -1.7 88
2020-01-13 06:00:00 -2.2 3 Noroeste 7 Noroeste 0 907.1 -1.9 89
2020-01-13 05:00:00 -2.4 2 Noroeste 8 Noroeste 0 907.7 -1.9 88
2020-01-13 04:00:00 -2.7 0 Calma 5 Noroeste 0 908.6 -2.1 88
2020-01-13 03:00:00 -1.3 0 Calma 8 Norte 0 909 -2.3 87
2020-01-13 02:00:00 -1.5 3 Noroeste 8 Norte 0 909.6 -1.9 91
2020-01-13 01:00:00 -0.9 3 Norte 8 Noroeste 0 910.7 -1 90
2020-01-13 00:00:00 0.2 4 Norte 12 Norte 0 911.3 -1 91
2020-01-12 23:00:00 -2.5 4 Norte 8 Nordeste 0 911.5 -0.8 94
2020-01-12 22:00:00 -1.9 0 Calma 2 Sudoeste 0 911.7 -0.6 92
2020-01-12 21:00:00 -1.6 0 Calma 3 Norte 0 912.3 0.3 89
2020-01-12 20:00:00 -0.6 0 Calma 3 Sudeste 0 912.3 0.5 85
2020-01-12 19:00:00 1 0 Calma 2 Sudeste 0 912.3 0.7 81
2020-01-12 18:00:00 4.2 0 Calma 5 Sudeste 0 912 0.6 73
2020-01-12 17:00:00 7 4 Sur 10 Sur 0 911.8 -0.1 61
2020-01-12 16:00:00 8.4 6 Sur 10 Sur 0 911.6 -1.1 55
2020-01-12 15:00:00 8.9 6 Sur 10 Sur 0.1 911.4 -2.1 59
2020-01-12 14:00:00 7.1 8 Sur 10 Sur 0 911.9 -1.6 71
2020-01-12 13:00:00 7.1 4 Sudeste 9 Sudeste 0 912.7 -0.5 77
2020-01-12 12:00:00 5.2 4 Sudeste 6 Sudeste 0.1 913.5 0.8 88
2020-01-12 11:00:00 1.8 0 Calma 4 Noroeste 0 913.5 1 98
2020-01-12 10:00:00 -2.6 0 Calma 5 Sur 0 913.2 1 98
2020-01-12 09:00:00 -3 4 Nordeste 7 Norte 0 912.7 0.5 98
2020-01-12 08:00:00 -3 0 Calma 6 Oeste 0 912.5 0.1 98
2020-01-12 07:00:00 -2 0 Calma 10 Norte 0 912.2 -0.5 98
2020-01-12 06:00:00 -2.3 0 Calma 10 Nordeste 0 912.2 -0.2 98
2020-01-12 05:00:00 -1.7 2 Nordeste 5 Noroeste 0 912.4 -0.1 97
2020-01-12 04:00:00 -1.5 3 Noroeste 5 Noroeste 0 912.7 -0.2 96
2020-01-12 03:00:00 -1.2 0 Calma 4 Noroeste 0 912.4 -0.8 95
2020-01-12 02:00:00 -0.4 0 Calma 8 Noroeste 0 912.5 -0.9 95
2020-01-12 01:00:00 0.2 3 Norte 9 Norte 0 912.9 -0.6 96
2020-01-12 00:00:00 0.3 5 Noroeste 10 Noroeste 0 913.2 -0.3 96
2020-01-11 23:00:00 0 6 Noroeste 8 Noroeste 0 913.4 -0.2 95
2020-01-11 22:00:00 0 3 Noroeste 5 Noroeste 0 913.5 0.3 94
2020-01-11 21:00:00 0.4 3 Noroeste 5 Noroeste 0 913.5 0.7 92
2020-01-11 20:00:00 1.6 3 Norte 4 Nordeste 0 913.6 1.1 88
2020-01-11 19:00:00 3.3 2 Nordeste 7 Sudeste 0 913.2 1 77
2020-01-11 18:00:00 7.7 5 Sudeste 12 Sudeste 0 912.8 0.5 61
2020-01-11 17:00:00 10.1 8 Sudeste 13 Sudeste 0 912.5 -0.2 52
2020-01-11 16:00:00 10.3 6 Sur 12 Sur 0 912.2 -1.5 52
2020-01-11 15:00:00 9.8 5 Sudeste 14 Sudeste 0 912.3 -2 54
2020-01-11 14:00:00 9.4 4 Sur 13 Sur 0 912.7 -1.5 57
2020-01-11 13:00:00 7.6 6 Sur 13 Sur 0 913.7 -0.3 65
2020-01-11 12:00:00 5.6 6 Sur 11 Sur 0 914.3 0.6 68
2020-01-11 11:00:00 5 4 Sudeste 7 Sudeste 0.1 914.2 0.4 78
2020-01-11 10:00:00 1.1 0 Calma 9 Noroeste 0 914 0 96
2020-01-11 09:00:00 -2.5 4 Noroeste 7 Noroeste 0 913.7 -0.3 96
2020-01-11 08:00:00 -2 4 Noroeste 9 Noroeste 0 913.8 -0.4 96
2020-01-11 07:00:00 -1.8 3 Norte 6 Norte 0 914 -0.4 96
2020-01-11 06:00:00 -1.7 3 Norte 7 Noroeste 0 914 -0.5 95
2020-01-11 05:00:00 -1.6 4 Oeste 9 Noroeste 0 914.2 -0.4 94
2020-01-11 04:00:00 -1.8 5 Noroeste 8 Noroeste 0 914.4 -0.5 93
2020-01-11 03:00:00 -0.7 0 Calma 7 Noroeste 0 914.5 -0.7 91
2020-01-11 02:00:00 -0.7 5 Noroeste 9 Noroeste 0 914.6 -0.5 91
2020-01-11 01:00:00 -0.4 5 Noroeste 10 Noroeste 0 914.9 -0.1 89
2020-01-11 00:00:00 -0.2 4 Noroeste 12 Oeste 0 915.2 0.3 88
2020-01-10 23:00:00 0.6 3 Noroeste 12 Noroeste 0 915.1 0.5 85
2020-01-10 22:00:00 0.9 8 Noroeste 13 Noroeste 0 915 0.8 87
2020-01-10 21:00:00 0.4 9 Noroeste 11 Noroeste 0 914.9 1.3 87
2020-01-10 20:00:00 1.2 3 Norte 10 Noroeste 0 914.6 1.4 82
2020-01-10 19:00:00 2.3 5 Noroeste 8 Noroeste 0 914.2 1.4 75
2020-01-10 18:00:00 7.5 4 Este 14 Este 0 913.6 1.5 50
2020-01-10 17:00:00 9.4 9 Este 14 Nordeste 0 913.2 0.7 46
2020-01-10 16:00:00 10 6 Este 17 Este 0 912.8 0.1 46
2020-01-10 15:00:00 9.3 4 Norte 16 Este 0 912.1 -0.9 47
2020-01-10 14:00:00 8.9 5 Nordeste 18 Nordeste 0 912.5 -0.3 50
2020-01-10 13:00:00 8.3 4 Norte 14 Nordeste 0 912.7 0.7 57
2020-01-10 12:00:00 6.6 6 Noroeste 26 Norte 0 913 1.7 62
2020-01-10 11:00:00 5.8 16 Noroeste 24 Noroeste 0 912.8 1.5 64
2020-01-10 10:00:00 3.2 16 Noroeste 24 Noroeste 0 912 1.1 75
2020-01-10 09:00:00 2.1 14 Oeste 25 Noroeste 0 911.3 0.9 81
2020-01-10 08:00:00 2.6 17 Noroeste 26 Noroeste 0 911.3 1.3 80
2020-01-10 07:00:00 2.6 17 Noroeste 24 Noroeste 0 910.9 0.6 80
2020-01-10 06:00:00 2.2 8 Noroeste 24 Noroeste 0 910.4 0.3 80
2020-01-10 05:00:00 2.7 16 Noroeste 31 Noroeste 0 910 0.4 78
2020-01-10 04:00:00 3.7 13 Noroeste 22 Noroeste 0 910.3 0.8 75
2020-01-10 03:00:00 4.2 13 Oeste 32 Noroeste 0 910.1 0.5 75
2020-01-10 02:00:00 4 13 Noroeste 38 Noroeste 0 909.6 0.1 72
2020-01-10 01:00:00 4.4 13 Noroeste 40 Noroeste 0 909.5 0 74
2020-01-10 00:00:00 4.2 16 Noroeste 40 Noroeste 0 909.6 0.9 71
2020-01-09 23:00:00 4.4 4 Sur 33 Noroeste 0 909.5 1.1 67
2020-01-09 22:00:00 4.7 23 Noroeste 45 Noroeste 0 909.5 1.6 70
2020-01-09 21:00:00 4.6 21 Noroeste 37 Noroeste 0 908.7 1.2 79
2020-01-09 20:00:00 5.1 28 Noroeste 39 Noroeste 0 908.4 1.5 83
2020-01-09 19:00:00 5.7 25 Noroeste 43 Noroeste 0 907.9 2.5 82
2020-01-09 18:00:00 7.8 26 Noroeste 41 Noroeste 0 907.5 2.5 65
2020-01-09 17:00:00 9.2 28 Oeste 50 Noroeste 0 906.9 1.9 71
2020-01-09 16:00:00 13.1 30 Oeste 56 Oeste 0 905.4 -1.4 47
2020-01-09 15:00:00 10.3 12 Nordeste 23 Nordeste 0 905 -3.1 63
2020-01-09 14:00:00 14.7 8 Sudeste 33 Sudoeste 0 905 -3.6 48
2020-01-09 13:00:00 12 6 Sur 18 Sudoeste 0 906.8 -1.6 60
2020-01-09 12:00:00 11.2 2 Sudeste 10 Sudeste 0 908.1 -0.4 73
2020-01-09 11:00:00 9.5 0 Calma 10 Sudeste 0 908.6 0.3 82
2020-01-09 10:00:00 6.4 0 Calma 7 Norte 0 908.4 -0.4 96
2020-01-09 09:00:00 3.4 6 Noroeste 10 Noroeste 0 908.5 -0.2 97
2020-01-09 08:00:00 4 0 Calma 9 Noroeste 0 908.3 -1 96
2020-01-09 07:00:00 4.6 0 Calma 11 Norte 0 908.8 -0.7 96
2020-01-09 06:00:00 4.4 4 Noroeste 9 Oeste 0 908.7 -1.4 95
2020-01-09 05:00:00 5.3 7 Norte 13 Noroeste 0 909.3 -1.1 95
2020-01-09 04:00:00 3.3 5 Noroeste 10 Noroeste 0 909.5 -1.4 95
2020-01-09 03:00:00 4.2 8 Noroeste 10 Noroeste 0 910.1 -1.3 95
2020-01-09 02:00:00 3.8 6 Noroeste 12 Noroeste 0 910.4 -1.3 93
2020-01-09 01:00:00 3.9 0 Calma 9 Oeste 0 910.9 -0.9 91
2020-01-09 00:00:00 4.6 0 Calma 11 Oeste 0 911.4 -0.5 88
2020-01-08 23:00:00 5 3 Oeste 9 Noroeste 0 911.7 -0.2 85
2020-01-08 22:00:00 4.5 3 Noroeste 8 Noroeste 0 911.8 -0.2 83
2020-01-08 21:00:00 5.8 0 Calma 6 Norte 0 911.9 0 77
2020-01-08 20:00:00 5.8 3 Noroeste 9 Noroeste 0 911.9 0 74
2020-01-08 19:00:00 5.8 8 Noroeste 9 Noroeste 0 912 0.4 70
2020-01-08 18:00:00 12 0 Calma 7 Sur 0 911.9 0.1 38
2020-01-08 17:00:00 14.9 4 Sur 12 Sur 0 911.9 -0.2 32
2020-01-08 16:00:00 15.4 7 Sur 11 Sur 0 911.6 -1.3 29
2020-01-08 15:00:00 15.4 5 Sudeste 10 Sur 0 911.8 -1.6 27
2020-01-08 14:00:00 14.6 5 Este 11 Sudeste 0 912.1 -1.5 31
2020-01-08 13:00:00 13.7 6 Sudeste 10 Sur 0 912.9 -0.5 34
2020-01-08 12:00:00 12.2 4 Sudeste 6 Sudeste 0 913.4 0.2 39
2020-01-08 11:00:00 11.3 2 Sudeste 4 Sudeste 0 913.6 0.5 54
2020-01-08 10:00:00 5.7 2 Noroeste 10 Noroeste 0 913.4 0.4 78
2020-01-08 09:00:00 1.3 2 Noroeste 5 Norte 0 913.2 0 89
2020-01-08 08:00:00 1 2 Noroeste 6 Norte 0 913.1 -0.3 89
2020-01-08 07:00:00 0.8 0 Calma 5 Noroeste 0 913 -0.6 88
2020-01-08 06:00:00 0.6 2 Noroeste 4 Noroeste 0 913.2 0 87
2020-01-08 05:00:00 1 0 Calma 3 Noroeste 0 913.4 -0.5 84
2020-01-08 04:00:00 1.8 2 Nordeste 5 Noroeste 0 913.6 -0.4 78
2020-01-08 03:00:00 1.5 0 Calma 6 Noroeste 0 913.2 -1.2 78
2020-01-08 02:00:00 2.1 0 Calma 7 Noroeste 0 913.9 -0.7 73
2020-01-08 01:00:00 2.3 0 Calma 7 Noroeste 0 914 -0.8 73
2020-01-08 00:00:00 2.5 2 Noroeste 8 Noroeste 0 914.4 -0.4 76
2020-01-07 23:00:00 2.1 3 Noroeste 7 Noroeste 0 914.6 -0.1 81
2020-01-07 22:00:00 2.5 5 Noroeste 7 Noroeste 0 914.8 0.4 83
2020-01-07 21:00:00 2.6 3 Norte 6 Norte 0 914.8 0.8 82
2020-01-07 20:00:00 3.4 0 Calma 6 Norte 0 914.7 0.8 78
2020-01-07 19:00:00 4.4 0 Calma 6 Noroeste 0 914.4 0.7 70
2020-01-07 18:00:00 9.4 0 Calma 8 Sudeste 0 914 0.6 44
2020-01-07 17:00:00 12.7 5 Sur 8 Sur 0 913.9 0 37
2020-01-07 16:00:00 13.4 5 Sur 10 Sudeste 0 913.7 -0.8 36
2020-01-07 15:00:00 13.3 5 Sudeste 9 Sudeste 0 913.4 -1.7 37
2020-01-07 14:00:00 12.5 5 Sudeste 9 Sudeste 0 913.9 -0.9 36
2020-01-07 13:00:00 11.5 3 Este 8 Nordeste 0 914.5 -0.1 33
2020-01-07 12:00:00 9.2 2 Sur 6 Sudeste 0 915.1 0.9 40
2020-01-07 11:00:00 7.5 0 Calma 4 Este 0 914.8 1.2 59
2020-01-07 10:00:00 2.5 0 Calma 8 Noroeste 0 914.6 0.9 71
2020-01-07 09:00:00 0.5 6 Noroeste 8 Noroeste 0 914.2 0.3 71
2020-01-07 08:00:00 1.2 5 Noroeste 10 Norte 0 913.6 -0.5 65
2020-01-07 07:00:00 1.1 2 Norte 8 Noroeste 0 913.7 -0.4 68
2020-01-07 06:00:00 2.5 5 Noroeste 8 Noroeste 0 913.9 -0.2 63
2020-01-07 05:00:00 2.3 4 Nordeste 9 Nordeste 0 914.1 0 72
2020-01-07 04:00:00 0.2 4 Noroeste 6 Noroeste 0 914.1 -0.2 76
2020-01-07 03:00:00 1.6 5 Noroeste 8 Norte 0 914.1 -0.3 74
2020-01-07 02:00:00 -1.1 5 Noroeste 6 Noroeste 0 914.1 0 90
2020-01-07 01:00:00 -1.8 4 Norte 7 Nordeste 0 914.3 0.5 95
2020-01-07 00:00:00 -3.2 0 Calma 5 Norte 0 914.4 1.4 95
2020-01-06 23:00:00 -3 0 Calma 5 Este 0 914.1 1.2 93
2020-01-06 22:00:00 -2.3 3 Sudeste 10 Sudeste 0 913.8 1.3 93
2020-01-06 21:00:00 -1.2 2 Nordeste 8 Sudeste 0 913 1.2 90
2020-01-06 20:00:00 0 0 Calma 9 Norte 0 912.9 1.7 88
2020-01-06 19:00:00 1.3 0 Calma 8 Sur 0 912.5 1.9 79
2020-01-06 18:00:00 4.7 2 Sudeste 8 Sur 0 911.8 1.6 64
2020-01-06 17:00:00 7.8 5 Sur 8 Sudeste 0 911.2 0.5 56
2020-01-06 16:00:00 6.9 3 Sur 10 Sudeste 0 910.6 -0.5 58
2020-01-06 15:00:00 7.4 7 Sur 11 Sur 0 910.2 -1.1 54
2020-01-06 14:00:00 7.3 3 Sur 9 Sur 0 910.7 -0.8 53
2020-01-06 13:00:00 7.4 6 Sur 9 Sudeste 0 911.1 -0.3 51
2020-01-06 12:00:00 6.7 4 Sudeste 8 Sur 0 911.3 0.4 54
2020-01-06 11:00:00 6 0 Calma 4 Este 0 911.5 1.3 58
2020-01-06 10:00:00 1.9 0 Calma 4 Noroeste 0 911.4 1.2 75